• Join FlightAware (Why Join?)
  • Login
  • US Flag 
08:40PM EDT


 

Airport Tracker/Info


-or-


 

Live Flight TrackerFlight Track Log ✈ CTL13 ✈ 07-May-2013 ✈ KBKL - KEYE

Flight Track Log - Related Links

Times and Time Zones

All times are in EDT time to prevent confusion due to time zone crossing. See the CTL13 flight status page for this flight to view local times or setup timezone preferences in your user account.

Time Position Orientation Groundspeed Altitude Reporting Facility
EDT Latitude Longitude Course Direction KTS MPH feet Rate Location/Type
06:40PM 41.5336 -81.6817 346° North 119 137 1,400  Level Cleveland Center
06:41PM 41.5586 -81.6903 346° North 128 147 2,100 960 Climbing Cleveland Center
06:42PM 41.5789 -81.7378 300° West 143 165 3,200 840 Climbing Cleveland Center
06:43PM 41.5992 -81.7856 300° West 151 174 3,900 540 Climbing Cleveland Center
06:44PM 41.6050 -81.8439 278° West 161 185 4,300 420 Climbing Cleveland Center
06:45PM 41.6042 -81.9022 269° West 158 182 4,800 420 Climbing Cleveland Center
06:46PM 41.5889 -81.9572 250° West 164 189 5,200 360 Climbing Cleveland Center
06:47PM 41.5653 -82.0125 240° Southwest 166 191 5,600 360 Climbing Cleveland Center
06:48PM 41.5439 -82.0703 244° Southwest 169 194 6,000 300 Climbing Cleveland Center
06:49PM 41.5200 -82.1278 241° Southwest 176 203 6,300 240 Climbing Cleveland Center
06:50PM 41.4964 -82.1856 241° Southwest 175 201 6,600 240 Climbing Cleveland Center
06:51PM 41.4767 -82.2433 246° West 176 203 6,800 240 Climbing Cleveland Center
06:52PM 41.4531 -82.3008 241° Southwest 175 201 7,100 300 Climbing Cleveland Center
06:54PM 41.4061 -82.4103 240° Southwest 169 194 7,900 300 Climbing Indianapolis Center
06:55PM 41.3825 -82.4658 240° Southwest 169 194 8,100 60 Climbing Indianapolis Center
06:56PM 41.3583 -82.5256 242° Southwest 179 206 8,100  Level Indianapolis Center
06:57PM 41.3342 -82.5836 241° Southwest 179 206 8,100  Level Indianapolis Center
06:58PM 41.3072 -82.6503 242° Southwest 175 201 8,100 -60 Level Indianapolis Center
06:59PM 41.2856 -82.7092 244° Southwest 175 201 8,000 -60 Descending Indianapolis Center
07:00PM 41.2600 -82.7647 239° Southwest 176 203 8,000  Level Indianapolis Center
07:01PM 41.2339 -82.8197 238° Southwest 174 200 8,000  Level Indianapolis Center
07:02PM 41.2147 -82.8808 247° West 178 205 8,000  Level Indianapolis Center
07:03PM 41.1967 -82.9408 248° West 177 204 8,000  Level Indianapolis Center
07:04PM 41.1758 -83.0122 249° West 177 204 8,000  Level Indianapolis Center
07:05PM 41.1581 -83.0744 249° West 178 205 8,000  Level Indianapolis Center
07:06PM 41.1425 -83.1386 252° West 181 208 8,000 -60 Level Indianapolis Center
07:07PM 41.1264 -83.2003 251° West 177 204 7,900  Descending Indianapolis Center
07:08PM 41.1183 -83.2428 256° West 174 200 8,000  Climbing Chicago Center
07:09PM 41.1106 -83.2628 243° Southwest 177 204 7,900  Descending Indianapolis Center
07:10PM 41.0928 -83.3250 249° West 179 206 8,000  Climbing Indianapolis Center
07:11PM 41.0747 -83.3847 248° West 175 201 8,000 -360 Level Indianapolis Center
07:12PM 41.0481 -83.4564 244° Southwest 182 209 7,300 -720 Descending Indianapolis Center
07:13PM 41.0250 -83.5172 243° Southwest 198 228 6,600 -660 Descending Indianapolis Center
07:14PM 41.0003 -83.5828 243° Southwest 199 229 6,000 -420 Descending Indianapolis Center
07:15PM 40.9772 -83.6581 248° West 190 219 5,800 -300 Descending Indianapolis Center
07:16PM 40.9583 -83.7208 248° West 184 212 5,500 -300 Descending Indianapolis Center
07:17PM 40.9367 -83.7844 246° West 188 216 5,200 -300 Descending Indianapolis Center
07:18PM 40.9089 -83.8433 238° Southwest 188 216 4,900 -300 Descending Indianapolis Center
07:19PM 40.8839 -83.9069 243° Southwest 190 219 4,600 -360 Descending Indianapolis Center
07:20PM 40.8594 -83.9694 243° Southwest 190 219 4,200 -360 Descending Indianapolis Center
07:21PM 40.8344 -84.0336 243° Southwest 192 221 3,900 -120 Descending Indianapolis Center
07:22PM 40.8044 -84.1044 241° Southwest 191 220 4,000  Climbing Indianapolis Center
07:23PM 40.7792 -84.1631 240° Southwest 188 216 4,000  Level Indianapolis Center
07:24PM 40.7539 -84.2194 239° Southwest 183 211 4,000  Level Indianapolis Center
07:25PM 40.7275 -84.2789 240° Southwest 183 211 4,000  Level Indianapolis Center
07:26PM 40.7044 -84.3389 243° Southwest 184 212 4,000  Level Indianapolis Center
07:27PM 40.6858 -84.3778 238° Southwest 183 211 4,000  Level Indianapolis Center
07:28PM 40.6531 -84.4411 236° Southwest 185 213 4,000  Level Indianapolis Center
07:29PM 40.6350 -84.4911 245° Southwest 180 207 4,000  Level Indianapolis Center
07:30PM 40.6006 -84.5406 227° Southwest 178 205 4,000  Level Indianapolis Center
07:31PM 40.5661 -84.5856 225° Southwest 175 201 4,000  Level Indianapolis Center
07:32PM 40.5286 -84.6322 223° Southwest 178 205 4,000  Level Indianapolis Center
07:33PM 40.4869 -84.6856 224° Southwest 181 208 4,000  Level Indianapolis Center
07:34PM 40.4533 -84.7303 225° Southwest 175 201 4,000 -60 Level Indianapolis Center
07:36PM 40.3889 -84.8147 225° Southwest 186 214 3,900 -60 Descending Indianapolis Center
07:37PM 40.3492 -84.8611 222° Southwest 183 211 3,900  Level Indianapolis Center